Faith Municipal, SD

2:14 PM MDT on September 30, 2014 (GMT -0600)
Ellsworth Air Force Base | Change Station
CLOSE
Current Station
Airport
Location: Ellsworth AFB,
Elevation: 3278 ft
Nearby Weather Stations

Elev 3278 ft 44.15 °N, 103.10 °W | Updated 16 minutes ago

Overcast
Overcast
61 °F
Feels Like 61 °F
N
26
Wind Variable Wind from NW
Gusts 37 mph

Today
High -- | Low -- °F
--% Chance of Precip.
Yesterday
High -- | Low -- °F
Precip. -- in
6:44 AM 6:30 PM
Waxing Crescent, 39% visible
Pressure 29.49 in
Visibility 10.0 miles
Clouds Few 8000 ft
Scattered Clouds 13000 ft
Scattered Clouds 16000 ft
Dew Point 50 °F
Humidity 68%
Rainfall 1.09 in
Snow Depth 1 in
UV 4 out of 12
Pollen .50 out of 12
Air Quality Not available.
Flu Activity Not available.
METAR KRCA 301958Z 31023G32KT 10SM FEW080 SCT130 SCT160 16/10 A2951 RMK AO2A PK WND 30036/13 RAB1859E1909DZE1859 SLP986 P0000 T01610102 $

More Conditions Fewer Conditions

Pressure 29.49 in
Visibility 10.0 miles
Clouds Few 8000 ft
Scattered Clouds 13000 ft
Scattered Clouds 16000 ft
Dew Point 50 °F
Humidity 68%
Rainfall 1.09 in
Snow Depth 1 in
UV 4 out of 12
Pollen .50 out of 12
Air Quality Not available.
Flu Activity Not available.
METAR KRCA 301958Z 31023G32KT 10SM FEW080 SCT130 SCT160 16/10 A2951 RMK AO2A PK WND 30036/13 RAB1859E1909DZE1859 SLP986 P0000 T01610102 $

More Conditions Fewer Conditions

10-Day Weather Forecast

Almanac

Astronomy

Sep. 30, 2014 Rise Set
Actual Time 6:44 AM MDT 6:30 PM MDT
Civil Twilight 6:15 AM MDT 6:59 PM MDT
Nautical Twilight 5:41 AM MDT 7:33 PM MDT
Astronomical Twilight 5:06 AM MDT 8:08 PM MDT
Moon 1:06 PM MDT 10:50 PM MDT
Length of Visible Light 12h 43m
Length of Day
11h 45m
Tomorrow will be 3m 7s shorter.
Waxing Crescent, 39% of the Moon is Illuminated
Today
Waxing Crescent
Oct 1
First Quarter
Oct 8
Full
Oct 15
Last Quarter
Oct 23
New

Today's Extremes

State Highs State Lows

Community

WunderPhotos

Upload Photos

1,757,738 photos uploaded!

Nearby

Snow Depth

Station Depth Elevation
Blind Park 1 in 6890 ft

Earthquake Activity

City Distance Mag. Time & Date
No recent earthquake activity has been reported nearby.
Minimum magnitude displayed is 2.5.

Coastal Water Temperatures

Place Temperature
No Stations Reporting

Nearby Weather Stations